createdAt,value
2019-04-03T00:02:07.002Z,6.07
2019-04-03T00:04:36.250Z,5.67
2019-04-03T00:07:05.524Z,7.13
2019-04-03T00:09:38.142Z,6.30
2019-04-03T00:12:08.673Z,6.50
2019-04-03T00:14:38.878Z,6.37
2019-04-03T00:17:07.664Z,6.60
2019-04-03T00:19:38.448Z,6.63
2019-04-03T00:22:07.328Z,6.47
2019-04-03T00:24:36.268Z,5.23
2019-04-03T00:27:05.124Z,5.83
2019-04-03T00:29:35.703Z,6.17
2019-04-03T00:32:04.694Z,6.70
2019-04-03T00:34:35.305Z,6.77
2019-04-03T00:37:04.429Z,6.97
2019-04-03T00:39:34.624Z,7.20
2019-04-03T00:42:03.600Z,7.60
2019-04-03T00:44:32.464Z,7.40
2019-04-03T00:47:05.233Z,7.23
2019-04-03T00:49:38.624Z,6.67
2019-04-03T00:52:04.810Z,7.13
2019-04-03T00:54:34.487Z,7.03
2019-04-03T00:57:05.866Z,8.00
2019-04-03T00:59:34.768Z,8.23
2019-04-03T01:02:04.258Z,8.47
2019-04-03T01:04:34.524Z,9.40
2019-04-03T01:07:03.467Z,8.70
2019-04-03T01:09:32.369Z,8.00
2019-04-03T01:12:01.324Z,9.07
2019-04-03T01:14:31.633Z,8.80
2019-04-03T01:17:03.732Z,8.13
2019-04-03T01:19:31.819Z,8.97
2019-04-03T01:22:01.838Z,9.13
2019-04-03T01:24:31.195Z,8.90
2019-04-03T01:27:00.952Z,7.53
2019-04-03T01:29:29.842Z,8.97
2019-04-03T01:31:58.680Z,7.90
2019-04-03T01:34:27.871Z,8.37
2019-04-03T01:36:57.997Z,7.50
2019-04-03T01:39:45.583Z,7.00
2019-04-03T01:42:15.415Z,7.97
2019-04-03T01:44:47.079Z,6.63
2019-04-03T01:47:15.974Z,7.90
2019-04-03T01:49:48.332Z,7.90
2019-04-03T01:52:17.256Z,7.63
2019-04-03T01:54:46.905Z,6.60
2019-04-03T01:57:16.489Z,7.33
2019-04-03T01:59:45.317Z,6.80
2019-04-03T02:02:14.217Z,7.10
2019-04-03T02:05:01.346Z,7.00
2019-04-03T02:07:30.236Z,7.00
2019-04-03T02:09:59.010Z,7.07
2019-04-03T02:12:28.667Z,7.10
2019-04-03T02:14:57.554Z,8.27
2019-04-03T02:17:26.651Z,7.07
2019-04-03T02:19:56.607Z,7.47
2019-04-03T02:22:26.000Z,7.37
2019-04-03T02:24:54.806Z,7.43
2019-04-03T02:27:23.592Z,7.67
2019-04-03T02:29:52.387Z,8.20
2019-04-03T02:32:23.135Z,9.00
2019-04-03T02:34:51.718Z,8.23
2019-04-03T02:37:20.637Z,7.83
2019-04-03T02:39:49.630Z,7.37
2019-04-03T02:42:18.467Z,7.23
2019-04-03T02:44:50.945Z,9.10
2019-04-03T02:47:19.604Z,8.63
2019-04-03T02:49:50.197Z,8.77
2019-04-03T02:52:24.076Z,9.93
2019-04-03T02:54:52.952Z,10.27
2019-04-03T02:57:21.909Z,9.80
2019-04-03T02:59:52.097Z,9.93
2019-04-03T03:02:33.315Z,9.53
2019-04-03T03:05:02.468Z,10.47
2019-04-03T03:07:35.856Z,11.20
2019-04-03T03:10:04.730Z,10.30
2019-04-03T03:12:34.539Z,9.57
2019-04-03T03:15:06.332Z,10.37
2019-04-03T03:17:58.343Z,10.33
2019-04-03T03:20:29.459Z,11.03
2019-04-03T03:22:58.530Z,11.20
2019-04-03T03:25:27.817Z,9.63
2019-04-03T03:27:57.988Z,10.57
2019-04-03T03:30:38.883Z,10.07
2019-04-03T03:33:23.158Z,10.23
2019-04-03T03:35:39.127Z,10.57
2019-04-03T03:38:01.744Z,10.00
2019-04-03T03:40:30.972Z,10.70
2019-04-03T03:43:05.379Z,11.10
2019-04-03T03:45:33.113Z,10.57
2019-04-03T03:48:02.688Z,11.07
2019-04-03T03:50:34.545Z,10.50
2019-04-03T03:53:03.500Z,11.07
2019-04-03T03:55:33.234Z,11.27
2019-04-03T03:58:03.276Z,10.90
2019-04-03T04:00:33.722Z,12.17
2019-04-03T04:03:04.305Z,12.47
2019-04-03T04:05:33.130Z,11.87
2019-04-03T04:08:02.147Z,11.87
2019-04-03T04:10:36.514Z,11.83
2019-04-03T04:13:06.318Z,11.97
2019-04-03T04:15:35.829Z,12.53
2019-04-03T04:18:04.984Z,13.03
2019-04-03T04:20:36.601Z,11.30
2019-04-03T04:23:08.407Z,11.40
2019-04-03T04:25:38.116Z,11.93
2019-04-03T04:28:09.174Z,11.97
2019-04-03T04:30:37.637Z,12.67
2019-04-03T04:33:07.687Z,13.47
2019-04-03T04:35:36.597Z,12.70
2019-04-03T04:38:57.356Z,12.57
2019-04-03T04:41:28.168Z,12.90
2019-04-03T04:43:57.010Z,12.77
2019-04-03T04:46:25.851Z,13.80
2019-04-03T04:48:54.671Z,13.50
2019-04-03T04:51:23.886Z,14.07
2019-04-03T04:53:54.175Z,13.30
2019-04-03T04:56:23.117Z,14.23
2019-04-03T04:58:51.996Z,14.43
2019-04-03T05:01:21.108Z,13.60
2019-04-03T05:03:54.131Z,13.90
2019-04-03T05:06:32.155Z,15.73
2019-04-03T05:09:03.937Z,14.50
2019-04-03T05:11:34.468Z,14.00
2019-04-03T05:14:03.631Z,15.07
2019-04-03T05:16:32.865Z,14.10
2019-04-03T05:19:09.758Z,15.40
2019-04-03T05:21:32.444Z,16.47
2019-04-03T05:24:11.596Z,16.23
2019-04-03T05:26:33.342Z,16.30
2019-04-03T05:29:03.009Z,16.47
2019-04-03T05:31:32.776Z,17.40
2019-04-03T05:34:01.739Z,16.17
2019-04-03T05:36:32.002Z,16.63
2019-04-03T05:39:02.735Z,16.57
2019-04-03T05:41:32.708Z,17.37
2019-04-03T05:44:02.467Z,17.00
2019-04-03T05:46:33.311Z,17.00
2019-04-03T05:49:02.335Z,18.70
2019-04-03T05:51:32.575Z,19.30
2019-04-03T05:54:02.576Z,17.57
2019-04-03T05:56:31.719Z,17.27
2019-04-03T05:59:02.632Z,17.70
2019-04-03T06:01:31.346Z,17.67
2019-04-03T06:04:00.131Z,16.93
2019-04-03T06:06:28.929Z,16.47
2019-04-03T06:08:57.829Z,17.87
2019-04-03T06:11:27.135Z,18.63
2019-04-03T06:13:56.381Z,17.97
2019-04-03T06:16:28.408Z,17.87
2019-04-03T06:21:47.634Z,19.17
2019-04-03T06:24:19.650Z,19.67
2019-04-03T06:26:54.347Z,19.73
2019-04-03T06:32:56.683Z,19.67
2019-04-03T06:35:26.537Z,18.27
2019-04-03T06:38:00.160Z,17.93
2019-04-03T06:40:56.120Z,19.50
2019-04-03T06:43:30.448Z,19.57
2019-04-03T06:45:59.167Z,20.80
2019-04-03T06:48:31.990Z,20.73
2019-04-03T06:51:00.998Z,18.93
2019-04-03T06:53:34.807Z,19.23
2019-04-03T06:56:09.672Z,23.87
2019-04-03T06:58:40.193Z,21.80
2019-04-03T07:01:09.610Z,22.33
2019-04-03T07:03:39.602Z,21.73
2019-04-03T07:06:12.716Z,25.53
2019-04-03T07:08:43.930Z,25.20
2019-04-03T07:11:23.105Z,25.93
2019-04-03T07:13:44.964Z,25.27
2019-04-03T07:16:16.056Z,25.80
2019-04-03T07:18:47.583Z,24.03
2019-04-03T07:21:16.796Z,22.77
2019-04-03T07:24:05.425Z,25.77
2019-04-03T07:26:35.676Z,27.90
2019-04-03T07:29:11.885Z,28.30
2019-04-03T07:31:41.675Z,26.83
2019-04-03T07:34:29.156Z,24.17
2019-04-03T07:37:00.445Z,25.37
2019-04-03T07:39:30.505Z,26.47
2019-04-03T07:42:02.089Z,26.07
2019-04-03T07:44:40.855Z,26.13
2019-04-03T07:47:10.009Z,24.87
2019-04-03T07:55:30.468Z,23.03
2019-04-03T07:58:03.077Z,25.77
2019-04-03T08:00:39.177Z,23.97
2019-04-03T08:03:11.455Z,24.37
2019-04-03T08:05:44.825Z,24.47
2019-04-03T08:11:05.881Z,24.03
2019-04-03T08:13:37.391Z,23.27
2019-04-03T08:16:06.533Z,22.67
2019-04-03T08:18:35.759Z,22.23
2019-04-03T08:21:11.173Z,21.90
2019-04-03T08:23:45.514Z,22.57
2019-04-03T08:26:18.513Z,22.23
2019-04-03T08:28:53.259Z,23.00
2019-04-03T08:31:28.190Z,19.57
2019-04-03T08:33:59.583Z,20.53
2019-04-03T08:36:32.506Z,20.73
2019-04-03T08:39:02.228Z,22.23
2019-04-03T08:41:36.692Z,21.93
2019-04-03T08:44:11.244Z,21.83
2019-04-03T08:46:43.008Z,21.80
2019-04-03T08:49:19.345Z,20.73
2019-04-03T08:55:35.341Z,20.90
2019-04-03T09:13:01.234Z,21.20
2019-04-03T09:15:44.100Z,22.13
2019-04-03T09:18:19.549Z,20.97
2019-04-03T09:20:51.764Z,19.80
2019-04-03T09:23:24.721Z,20.87
2019-04-03T09:25:57.329Z,20.93
2019-04-03T09:28:29.809Z,19.87
2019-04-03T09:31:03.053Z,18.97
2019-04-03T09:33:36.250Z,18.73
2019-04-03T09:36:08.022Z,17.83
2019-04-03T09:38:41.520Z,18.53
2019-04-03T09:41:12.462Z,18.40
2019-04-03T09:43:42.051Z,17.30
2019-04-03T09:46:20.460Z,20.47
2019-04-03T09:48:50.665Z,19.47
2019-04-03T09:51:22.362Z,17.43
2019-04-03T09:53:53.242Z,17.90
2019-04-03T09:56:22.491Z,15.20
2019-04-03T09:58:55.416Z,17.70
2019-04-03T10:04:21.323Z,17.37
2019-04-03T10:06:48.795Z,15.97
2019-04-03T10:09:21.212Z,15.70
2019-04-03T10:11:52.548Z,14.50
2019-04-03T10:14:23.986Z,14.73
2019-04-03T10:16:55.118Z,16.03
2019-04-03T10:19:25.547Z,14.17
2019-04-03T10:22:01.808Z,14.10
2019-04-03T10:24:33.797Z,13.17
2019-04-03T10:27:06.748Z,14.67
2019-04-03T10:29:37.786Z,13.87
2019-04-03T10:50:45.943Z,13.83
2019-04-03T10:53:17.898Z,10.50
2019-04-03T10:55:59.318Z,11.13
2019-04-03T10:58:43.897Z,11.37
2019-04-03T11:07:33.824Z,10.60
2019-04-03T11:10:26.970Z,11.63
2019-04-03T11:16:07.070Z,11.07
2019-04-03T11:18:57.137Z,8.70
2019-04-03T11:21:16.229Z,9.93
2019-04-03T11:50:44.366Z,6.37
2019-04-03T11:56:07.534Z,8.87
2019-04-03T12:07:29.400Z,8.77
2019-04-03T12:12:57.148Z,8.43
2019-04-03T12:15:41.194Z,8.07
2019-04-03T12:30:10.492Z,7.47
2019-04-03T14:30:33.871Z,7.07
2019-04-03T14:43:12.289Z,5.70
2019-04-03T15:08:05.639Z,5.30
2019-04-03T15:10:43.941Z,4.97
2019-04-03T15:13:20.388Z,4.90
2019-04-03T15:15:54.927Z,5.37
2019-04-03T15:21:26.325Z,5.23
2019-04-03T15:30:18.301Z,5.83
2019-04-03T15:33:08.973Z,5.63
2019-04-03T15:35:53.298Z,6.27
2019-04-03T15:38:25.633Z,6.37
2019-04-03T15:40:58.265Z,6.67
2019-04-03T15:43:27.990Z,6.20
2019-04-03T15:45:58.429Z,6.90
2019-04-03T15:48:29.618Z,6.57
2019-04-03T15:51:01.622Z,6.90
2019-04-03T15:53:35.720Z,6.87
2019-04-03T15:56:15.550Z,6.67
2019-04-03T15:58:46.997Z,6.37
2019-04-03T16:01:23.202Z,6.57
2019-04-03T16:03:59.086Z,6.33
2019-04-03T16:06:35.476Z,6.70
2019-04-03T16:09:10.711Z,3.63
2019-04-03T16:11:40.072Z,3.33
2019-04-03T16:14:31.879Z,2.60
2019-04-03T16:17:13.475Z,2.47
2019-04-03T16:19:45.094Z,3.03
2019-04-03T16:22:16.124Z,3.37
2019-04-03T16:24:45.772Z,2.77
2019-04-03T16:27:15.079Z,4.90
2019-04-03T16:29:49.198Z,4.70
2019-04-03T16:32:26.917Z,5.60
2019-04-03T16:35:19.684Z,5.27
2019-04-03T16:38:11.548Z,6.00
2019-04-03T16:40:42.485Z,5.40
2019-04-03T16:43:30.172Z,6.50
2019-04-03T16:46:00.015Z,5.03
2019-04-03T16:48:33.339Z,5.87
2019-04-03T16:51:02.295Z,5.17
2019-04-03T16:53:32.405Z,4.93
2019-04-03T16:56:01.640Z,5.53
2019-04-03T16:58:32.257Z,5.60
2019-04-03T17:01:02.088Z,4.70
2019-04-03T17:03:33.760Z,4.10
2019-04-03T17:06:05.266Z,4.10
2019-04-03T17:08:34.198Z,4.50
2019-04-03T17:11:03.730Z,6.03
2019-04-03T17:13:33.976Z,4.47
2019-04-03T17:16:07.834Z,4.83
2019-04-03T17:18:38.822Z,4.87
2019-04-03T17:21:11.361Z,4.67
2019-04-03T17:23:45.541Z,4.53
2019-04-03T17:26:16.845Z,4.13
2019-04-03T17:29:00.452Z,4.57
2019-04-03T17:31:23.622Z,3.87
2019-04-03T17:33:52.324Z,4.73
2019-04-03T17:36:26.776Z,5.67
2019-04-03T17:38:56.627Z,5.50
2019-04-03T17:41:26.936Z,6.50
2019-04-03T22:03:50.572Z,7.73
